sensor_id;sensor_type;location;lat;lon;timestamp;P1;durP1;ratioP1;P2;durP2;ratioP2
78787;SDS011;68131;52.508;5.502;2023-05-15T00:00:11;4.72;;;3.53;;
78787;SDS011;68131;52.508;5.502;2023-05-15T00:02:44;5.47;;;2.88;;
78787;SDS011;68131;52.508;5.502;2023-05-15T00:05:16;4.18;;;3.03;;
78787;SDS011;68131;52.508;5.502;2023-05-15T00:07:45;5.47;;;3.20;;
78787;SDS011;68131;52.508;5.502;2023-05-15T00:10:15;3.97;;;3.30;;
78787;SDS011;68131;52.508;5.502;2023-05-15T00:12:44;6.03;;;2.35;;
78787;SDS011;68131;52.508;5.502;2023-05-15T00:15:13;4.53;;;3.03;;
78787;SDS011;68131;52.508;5.502;2023-05-15T00:17:42;3.92;;;2.97;;
78787;SDS011;68131;52.508;5.502;2023-05-15T00:20:11;3.58;;;2.80;;
78787;SDS011;68131;52.508;5.502;2023-05-15T00:22:43;5.05;;;2.97;;
78787;SDS011;68131;52.508;5.502;2023-05-15T00:25:12;4.22;;;3.03;;
78787;SDS011;68131;52.508;5.502;2023-05-15T00:27:41;6.35;;;3.17;;
78787;SDS011;68131;52.508;5.502;2023-05-15T00:30:11;5.57;;;3.20;;
78787;SDS011;68131;52.508;5.502;2023-05-15T00:32:42;4.97;;;2.95;;
78787;SDS011;68131;52.508;5.502;2023-05-15T00:35:11;4.95;;;2.92;;
78787;SDS011;68131;52.508;5.502;2023-05-15T00:37:43;2.83;;;2.53;;
78787;SDS011;68131;52.508;5.502;2023-05-15T00:40:14;3.38;;;2.45;;
78787;SDS011;68131;52.508;5.502;2023-05-15T00:42:50;6.60;;;3.20;;
78787;SDS011;68131;52.508;5.502;2023-05-15T00:45:20;4.00;;;3.08;;
78787;SDS011;68131;52.508;5.502;2023-05-15T00:47:50;5.18;;;3.08;;
78787;SDS011;68131;52.508;5.502;2023-05-15T00:50:21;6.43;;;3.28;;
78787;SDS011;68131;52.508;5.502;2023-05-15T00:52:54;4.93;;;3.33;;
78787;SDS011;68131;52.508;5.502;2023-05-15T00:55:23;4.75;;;3.05;;
78787;SDS011;68131;52.508;5.502;2023-05-15T00:57:56;5.53;;;2.92;;
78787;SDS011;68131;52.508;5.502;2023-05-15T01:00:27;4.95;;;3.33;;
78787;SDS011;68131;52.508;5.502;2023-05-15T01:03:00;3.13;;;2.60;;
78787;SDS011;68131;52.508;5.502;2023-05-15T01:05:30;3.88;;;2.65;;
78787;SDS011;68131;52.508;5.502;2023-05-15T01:08:05;3.03;;;2.42;;
78787;SDS011;68131;52.508;5.502;2023-05-15T01:10:39;4.18;;;2.45;;
78787;SDS011;68131;52.508;5.502;2023-05-15T01:13:15;4.05;;;2.80;;
78787;SDS011;68131;52.508;5.502;2023-05-15T01:15:51;5.53;;;3.10;;
78787;SDS011;68131;52.508;5.502;2023-05-15T01:18:22;3.15;;;2.22;;
78787;SDS011;68131;52.508;5.502;2023-05-15T01:21:02;4.35;;;2.88;;
78787;SDS011;68131;52.508;5.502;2023-05-15T01:23:56;4.57;;;2.70;;
78787;SDS011;68131;52.508;5.502;2023-05-15T01:26:46;4.80;;;2.67;;
78787;SDS011;68131;52.508;5.502;2023-05-15T01:29:29;3.20;;;2.58;;
78787;SDS011;68131;52.508;5.502;2023-05-15T01:32:07;4.95;;;2.20;;
78787;SDS011;68131;52.508;5.502;2023-05-15T01:34:41;5.78;;;2.83;;
78787;SDS011;68131;52.508;5.502;2023-05-15T01:37:13;5.25;;;3.08;;
78787;SDS011;68131;52.508;5.502;2023-05-15T01:39:50;3.70;;;2.65;;
78787;SDS011;68131;52.508;5.502;2023-05-15T01:42:23;3.20;;;2.40;;
78787;SDS011;68131;52.508;5.502;2023-05-15T01:45:01;2.90;;;2.47;;
78787;SDS011;68131;52.508;5.502;2023-05-15T01:47:35;4.03;;;3.00;;
78787;SDS011;68131;52.508;5.502;2023-05-15T01:50:09;4.95;;;2.33;;
78787;SDS011;68131;52.508;5.502;2023-05-15T01:52:43;4.53;;;2.72;;
78787;SDS011;68131;52.508;5.502;2023-05-15T01:55:15;7.95;;;3.10;;
78787;SDS011;68131;52.508;5.502;2023-05-15T01:57:47;3.80;;;2.55;;
78787;SDS011;68131;52.508;5.502;2023-05-15T02:00:20;2.60;;;2.03;;
78787;SDS011;68131;52.508;5.502;2023-05-15T02:02:50;7.15;;;3.40;;
78787;SDS011;68131;52.508;5.502;2023-05-15T02:05:20;6.20;;;3.28;;
78787;SDS011;68131;52.508;5.502;2023-05-15T02:07:54;6.50;;;3.92;;
78787;SDS011;68131;52.508;5.502;2023-05-15T02:10:24;9.40;;;4.13;;
78787;SDS011;68131;52.508;5.502;2023-05-15T02:12:54;5.10;;;3.50;;
78787;SDS011;68131;52.508;5.502;2023-05-15T02:15:30;11.90;;;3.42;;
78787;SDS011;68131;52.508;5.502;2023-05-15T02:17:59;6.50;;;3.55;;
78787;SDS011;68131;52.508;5.502;2023-05-15T02:20:29;5.72;;;3.63;;
78787;SDS011;68131;52.508;5.502;2023-05-15T02:23:02;4.70;;;3.72;;
78787;SDS011;68131;52.508;5.502;2023-05-15T02:25:33;5.95;;;4.03;;
78787;SDS011;68131;52.508;5.502;2023-05-15T02:28:19;5.28;;;3.35;;
78787;SDS011;68131;52.508;5.502;2023-05-15T02:31:00;7.80;;;4.30;;
78787;SDS011;68131;52.508;5.502;2023-05-15T02:33:39;7.53;;;4.45;;
78787;SDS011;68131;52.508;5.502;2023-05-15T02:36:17;5.00;;;3.58;;
78787;SDS011;68131;52.508;5.502;2023-05-15T02:38:51;9.13;;;3.88;;
78787;SDS011;68131;52.508;5.502;2023-05-15T02:41:21;5.72;;;4.57;;
78787;SDS011;68131;52.508;5.502;2023-05-15T02:43:51;6.13;;;4.20;;
78787;SDS011;68131;52.508;5.502;2023-05-15T02:46:24;4.28;;;3.25;;
78787;SDS011;68131;52.508;5.502;2023-05-15T02:48:54;3.47;;;2.40;;
78787;SDS011;68131;52.508;5.502;2023-05-15T02:51:24;6.82;;;3.80;;
78787;SDS011;68131;52.508;5.502;2023-05-15T02:53:54;5.55;;;3.80;;
78787;SDS011;68131;52.508;5.502;2023-05-15T02:56:27;7.88;;;3.88;;
78787;SDS011;68131;52.508;5.502;2023-05-15T02:58:57;6.22;;;3.97;;
78787;SDS011;68131;52.508;5.502;2023-05-15T03:01:32;7.53;;;3.90;;
78787;SDS011;68131;52.508;5.502;2023-05-15T03:04:01;6.00;;;3.95;;
78787;SDS011;68131;52.508;5.502;2023-05-15T03:06:30;4.50;;;3.28;;
78787;SDS011;68131;52.508;5.502;2023-05-15T03:09:00;5.07;;;3.63;;
78787;SDS011;68131;52.508;5.502;2023-05-15T03:11:29;4.90;;;3.20;;
78787;SDS011;68131;52.508;5.502;2023-05-15T03:14:00;7.55;;;3.85;;
78787;SDS011;68131;52.508;5.502;2023-05-15T03:16:31;7.15;;;3.90;;
78787;SDS011;68131;52.508;5.502;2023-05-15T03:19:01;8.65;;;4.00;;
78787;SDS011;68131;52.508;5.502;2023-05-15T03:21:32;6.53;;;4.03;;
78787;SDS011;68131;52.508;5.502;2023-05-15T03:24:02;4.93;;;2.97;;
78787;SDS011;68131;52.508;5.502;2023-05-15T03:26:33;5.13;;;3.13;;
78787;SDS011;68131;52.508;5.502;2023-05-15T03:29:02;4.45;;;3.10;;
78787;SDS011;68131;52.508;5.502;2023-05-15T03:31:34;7.15;;;3.33;;
78787;SDS011;68131;52.508;5.502;2023-05-15T03:34:05;5.55;;;4.30;;
78787;SDS011;68131;52.508;5.502;2023-05-15T03:36:36;6.82;;;3.33;;
78787;SDS011;68131;52.508;5.502;2023-05-15T03:39:05;4.25;;;2.92;;
78787;SDS011;68131;52.508;5.502;2023-05-15T03:41:37;5.10;;;3.67;;
78787;SDS011;68131;52.508;5.502;2023-05-15T03:44:08;14.90;;;3.60;;
78787;SDS011;68131;52.508;5.502;2023-05-15T03:46:42;4.72;;;3.38;;
78787;SDS011;68131;52.508;5.502;2023-05-15T03:49:16;5.88;;;4.30;;
78787;SDS011;68131;52.508;5.502;2023-05-15T03:51:47;5.82;;;4.13;;
78787;SDS011;68131;52.508;5.502;2023-05-15T03:54:17;6.38;;;3.50;;
78787;SDS011;68131;52.508;5.502;2023-05-15T03:56:50;6.03;;;4.30;;
78787;SDS011;68131;52.508;5.502;2023-05-15T03:59:20;6.50;;;4.28;;
78787;SDS011;68131;52.508;5.502;2023-05-15T04:01:54;5.93;;;3.65;;
78787;SDS011;68131;52.508;5.502;2023-05-15T04:04:24;8.05;;;4.30;;
78787;SDS011;68131;52.508;5.502;2023-05-15T04:06:55;7.90;;;4.10;;
78787;SDS011;68131;52.508;5.502;2023-05-15T04:09:24;4.80;;;3.78;;
78787;SDS011;68131;52.508;5.502;2023-05-15T04:11:55;6.20;;;3.50;;
78787;SDS011;68131;52.508;5.502;2023-05-15T04:14:25;6.50;;;4.05;;
78787;SDS011;68131;52.508;5.502;2023-05-15T04:16:57;5.60;;;4.50;;
78787;SDS011;68131;52.508;5.502;2023-05-15T04:19:30;7.30;;;4.90;;
78787;SDS011;68131;52.508;5.502;2023-05-15T04:22:01;4.70;;;3.28;;
78787;SDS011;68131;52.508;5.502;2023-05-15T04:24:32;4.28;;;3.20;;
78787;SDS011;68131;52.508;5.502;2023-05-15T04:27:02;5.18;;;3.53;;
78787;SDS011;68131;52.508;5.502;2023-05-15T04:29:32;4.13;;;3.00;;
78787;SDS011;68131;52.508;5.502;2023-05-15T04:32:05;8.50;;;4.82;;
78787;SDS011;68131;52.508;5.502;2023-05-15T04:34:37;5.65;;;4.00;;
78787;SDS011;68131;52.508;5.502;2023-05-15T04:37:09;5.88;;;3.58;;
78787;SDS011;68131;52.508;5.502;2023-05-15T04:39:45;9.30;;;4.65;;
78787;SDS011;68131;52.508;5.502;2023-05-15T04:42:16;4.68;;;3.85;;
78787;SDS011;68131;52.508;5.502;2023-05-15T04:44:45;4.25;;;3.20;;
78787;SDS011;68131;52.508;5.502;2023-05-15T04:47:19;4.50;;;3.55;;
78787;SDS011;68131;52.508;5.502;2023-05-15T04:49:48;5.60;;;3.50;;
78787;SDS011;68131;52.508;5.502;2023-05-15T04:52:19;4.80;;;3.28;;
78787;SDS011;68131;52.508;5.502;2023-05-15T04:54:48;5.32;;;3.40;;
78787;SDS011;68131;52.508;5.502;2023-05-15T04:57:20;5.53;;;3.22;;
78787;SDS011;68131;52.508;5.502;2023-05-15T04:59:50;5.03;;;3.28;;
78787;SDS011;68131;52.508;5.502;2023-05-15T05:02:25;4.72;;;3.45;;
78787;SDS011;68131;52.508;5.502;2023-05-15T05:04:54;6.75;;;3.50;;
78787;SDS011;68131;52.508;5.502;2023-05-15T05:07:23;6.38;;;3.85;;
78787;SDS011;68131;52.508;5.502;2023-05-15T05:09:55;5.68;;;3.15;;
78787;SDS011;68131;52.508;5.502;2023-05-15T05:12:27;4.35;;;2.60;;
78787;SDS011;68131;52.508;5.502;2023-05-15T05:14:58;5.03;;;3.38;;
78787;SDS011;68131;52.508;5.502;2023-05-15T05:17:31;2.97;;;2.65;;
78787;SDS011;68131;52.508;5.502;2023-05-15T05:20:02;3.97;;;2.50;;
78787;SDS011;68131;52.508;5.502;2023-05-15T05:22:33;4.43;;;3.17;;
78787;SDS011;68131;52.508;5.502;2023-05-15T05:25:02;3.88;;;2.92;;
78787;SDS011;68131;52.508;5.502;2023-05-15T05:27:32;4.75;;;3.15;;
78787;SDS011;68131;52.508;5.502;2023-05-15T05:30:02;4.72;;;3.40;;
78787;SDS011;68131;52.508;5.502;2023-05-15T05:32:37;3.15;;;2.85;;
78787;SDS011;68131;52.508;5.502;2023-05-15T05:35:06;2.15;;;1.95;;
78787;SDS011;68131;52.508;5.502;2023-05-15T05:37:36;3.63;;;2.58;;
78787;SDS011;68131;52.508;5.502;2023-05-15T05:40:08;2.85;;;1.90;;
78787;SDS011;68131;52.508;5.502;2023-05-15T05:42:38;4.40;;;2.70;;
78787;SDS011;68131;52.508;5.502;2023-05-15T05:45:09;3.25;;;2.30;;
78787;SDS011;68131;52.508;5.502;2023-05-15T05:47:42;4.05;;;3.15;;
78787;SDS011;68131;52.508;5.502;2023-05-15T05:50:12;6.03;;;3.15;;
78787;SDS011;68131;52.508;5.502;2023-05-15T05:52:42;4.15;;;3.42;;
78787;SDS011;68131;52.508;5.502;2023-05-15T05:55:12;4.97;;;3.08;;
78787;SDS011;68131;52.508;5.502;2023-05-15T05:57:42;6.80;;;2.88;;
78787;SDS011;68131;52.508;5.502;2023-05-15T06:00:14;3.53;;;2.88;;
78787;SDS011;68131;52.508;5.502;2023-05-15T06:02:46;4.38;;;2.72;;
78787;SDS011;68131;52.508;5.502;2023-05-15T06:05:16;3.50;;;2.55;;
78787;SDS011;68131;52.508;5.502;2023-05-15T06:07:48;3.40;;;2.72;;
78787;SDS011;68131;52.508;5.502;2023-05-15T06:10:17;7.65;;;3.00;;
78787;SDS011;68131;52.508;5.502;2023-05-15T06:12:46;4.05;;;3.20;;
78787;SDS011;68131;52.508;5.502;2023-05-15T06:15:17;4.10;;;3.33;;
78787;SDS011;68131;52.508;5.502;2023-05-15T06:17:51;5.53;;;3.80;;
78787;SDS011;68131;52.508;5.502;2023-05-15T06:20:21;3.60;;;3.15;;
78787;SDS011;68131;52.508;5.502;2023-05-15T06:22:50;6.18;;;3.60;;
78787;SDS011;68131;52.508;5.502;2023-05-15T06:25:23;3.83;;;2.92;;
78787;SDS011;68131;52.508;5.502;2023-05-15T06:27:53;4.50;;;3.42;;
78787;SDS011;68131;52.508;5.502;2023-05-15T06:30:23;6.30;;;3.50;;
78787;SDS011;68131;52.508;5.502;2023-05-15T06:32:56;5.13;;;3.45;;
78787;SDS011;68131;52.508;5.502;2023-05-15T06:35:26;5.32;;;3.78;;
78787;SDS011;68131;52.508;5.502;2023-05-15T06:37:55;7.88;;;4.60;;
78787;SDS011;68131;52.508;5.502;2023-05-15T06:40:24;5.60;;;4.10;;
78787;SDS011;68131;52.508;5.502;2023-05-15T06:42:56;3.75;;;3.08;;
78787;SDS011;68131;52.508;5.502;2023-05-15T06:45:27;5.40;;;3.80;;
78787;SDS011;68131;52.508;5.502;2023-05-15T06:47:58;8.02;;;4.38;;
78787;SDS011;68131;52.508;5.502;2023-05-15T06:50:28;6.90;;;3.95;;
78787;SDS011;68131;52.508;5.502;2023-05-15T06:52:57;6.13;;;4.22;;
78787;SDS011;68131;52.508;5.502;2023-05-15T06:55:26;6.68;;;3.85;;
78787;SDS011;68131;52.508;5.502;2023-05-15T06:57:58;6.05;;;4.03;;
78787;SDS011;68131;52.508;5.502;2023-05-15T07:00:27;6.32;;;4.38;;
78787;SDS011;68131;52.508;5.502;2023-05-15T07:02:59;5.75;;;3.95;;
78787;SDS011;68131;52.508;5.502;2023-05-15T07:05:28;5.65;;;4.78;;
78787;SDS011;68131;52.508;5.502;2023-05-15T07:08:00;4.95;;;3.75;;
78787;SDS011;68131;52.508;5.502;2023-05-15T07:10:29;5.57;;;4.00;;
78787;SDS011;68131;52.508;5.502;2023-05-15T07:12:58;6.50;;;4.47;;
78787;SDS011;68131;52.508;5.502;2023-05-15T07:15:27;5.43;;;4.50;;
78787;SDS011;68131;52.508;5.502;2023-05-15T07:17:59;6.88;;;4.20;;
78787;SDS011;68131;52.508;5.502;2023-05-15T07:20:29;7.80;;;4.13;;
78787;SDS011;68131;52.508;5.502;2023-05-15T07:23:01;5.10;;;3.83;;
78787;SDS011;68131;52.508;5.502;2023-05-15T07:25:33;7.28;;;4.20;;
78787;SDS011;68131;52.508;5.502;2023-05-15T07:28:02;7.55;;;4.90;;
78787;SDS011;68131;52.508;5.502;2023-05-15T07:30:32;6.28;;;3.45;;
78787;SDS011;68131;52.508;5.502;2023-05-15T07:33:03;5.85;;;3.97;;
78787;SDS011;68131;52.508;5.502;2023-05-15T07:35:32;6.75;;;4.00;;
78787;SDS011;68131;52.508;5.502;2023-05-15T07:38:02;6.63;;;4.53;;
78787;SDS011;68131;52.508;5.502;2023-05-15T07:40:33;7.38;;;5.32;;
78787;SDS011;68131;52.508;5.502;2023-05-15T07:43:03;5.32;;;3.70;;
78787;SDS011;68131;52.508;5.502;2023-05-15T07:45:32;7.65;;;4.75;;
78787;SDS011;68131;52.508;5.502;2023-05-15T07:48:14;5.20;;;3.83;;
78787;SDS011;68131;52.508;5.502;2023-05-15T07:50:45;5.93;;;3.67;;
78787;SDS011;68131;52.508;5.502;2023-05-15T07:53:15;7.18;;;4.85;;
78787;SDS011;68131;52.508;5.502;2023-05-15T07:55:45;6.53;;;4.25;;
78787;SDS011;68131;52.508;5.502;2023-05-15T07:58:14;6.70;;;4.80;;
78787;SDS011;68131;52.508;5.502;2023-05-15T08:00:44;7.30;;;4.63;;
78787;SDS011;68131;52.508;5.502;2023-05-15T08:03:16;7.07;;;4.32;;
78787;SDS011;68131;52.508;5.502;2023-05-15T08:05:46;8.82;;;4.57;;
78787;SDS011;68131;52.508;5.502;2023-05-15T08:08:22;5.68;;;4.38;;
78787;SDS011;68131;52.508;5.502;2023-05-15T08:10:51;5.82;;;4.10;;
78787;SDS011;68131;52.508;5.502;2023-05-15T08:13:21;6.32;;;3.80;;
78787;SDS011;68131;52.508;5.502;2023-05-15T08:15:54;9.52;;;5.18;;
78787;SDS011;68131;52.508;5.502;2023-05-15T08:18:26;5.90;;;4.38;;
78787;SDS011;68131;52.508;5.502;2023-05-15T08:20:55;6.75;;;4.25;;
78787;SDS011;68131;52.508;5.502;2023-05-15T08:23:25;5.90;;;3.78;;
78787;SDS011;68131;52.508;5.502;2023-05-15T08:25:55;6.25;;;4.00;;
78787;SDS011;68131;52.508;5.502;2023-05-15T08:28:26;8.70;;;4.43;;
78787;SDS011;68131;52.508;5.502;2023-05-15T08:30:56;6.75;;;4.63;;
78787;SDS011;68131;52.508;5.502;2023-05-15T08:33:28;9.18;;;4.28;;
78787;SDS011;68131;52.508;5.502;2023-05-15T08:35:59;7.70;;;5.20;;
78787;SDS011;68131;52.508;5.502;2023-05-15T08:38:29;6.03;;;3.50;;
78787;SDS011;68131;52.508;5.502;2023-05-15T08:41:02;7.47;;;4.32;;
78787;SDS011;68131;52.508;5.502;2023-05-15T08:43:34;9.82;;;4.30;;
78787;SDS011;68131;52.508;5.502;2023-05-15T08:46:06;7.47;;;3.85;;
78787;SDS011;68131;52.508;5.502;2023-05-15T08:48:38;5.57;;;3.50;;
78787;SDS011;68131;52.508;5.502;2023-05-15T08:51:12;6.03;;;4.40;;
78787;SDS011;68131;52.508;5.502;2023-05-15T08:53:43;6.35;;;4.40;;
78787;SDS011;68131;52.508;5.502;2023-05-15T08:56:13;6.70;;;4.20;;
78787;SDS011;68131;52.508;5.502;2023-05-15T08:58:44;6.60;;;3.67;;
78787;SDS011;68131;52.508;5.502;2023-05-15T09:01:14;5.80;;;3.47;;
78787;SDS011;68131;52.508;5.502;2023-05-15T09:03:46;4.95;;;3.53;;
78787;SDS011;68131;52.508;5.502;2023-05-15T09:06:17;5.03;;;4.05;;
78787;SDS011;68131;52.508;5.502;2023-05-15T09:08:46;4.95;;;4.07;;
78787;SDS011;68131;52.508;5.502;2023-05-15T09:11:17;5.50;;;3.88;;
78787;SDS011;68131;52.508;5.502;2023-05-15T09:13:48;4.80;;;3.50;;
78787;SDS011;68131;52.508;5.502;2023-05-15T09:16:17;7.38;;;3.50;;
78787;SDS011;68131;52.508;5.502;2023-05-15T09:18:50;4.70;;;3.08;;
78787;SDS011;68131;52.508;5.502;2023-05-15T09:21:21;4.57;;;3.20;;
78787;SDS011;68131;52.508;5.502;2023-05-15T09:23:51;4.90;;;3.50;;
78787;SDS011;68131;52.508;5.502;2023-05-15T09:26:20;4.30;;;3.58;;
78787;SDS011;68131;52.508;5.502;2023-05-15T09:28:56;6.03;;;3.55;;
78787;SDS011;68131;52.508;5.502;2023-05-15T09:31:32;5.13;;;3.33;;
78787;SDS011;68131;52.508;5.502;2023-05-15T09:34:06;6.40;;;3.67;;
78787;SDS011;68131;52.508;5.502;2023-05-15T09:36:41;5.18;;;3.33;;
78787;SDS011;68131;52.508;5.502;2023-05-15T09:39:12;6.82;;;3.67;;
78787;SDS011;68131;52.508;5.502;2023-05-15T09:41:41;4.80;;;3.28;;
78787;SDS011;68131;52.508;5.502;2023-05-15T09:44:23;5.13;;;3.08;;
78787;SDS011;68131;52.508;5.502;2023-05-15T09:46:54;5.75;;;3.30;;
78787;SDS011;68131;52.508;5.502;2023-05-15T09:49:28;8.13;;;3.65;;
78787;SDS011;68131;52.508;5.502;2023-05-15T09:51:59;5.75;;;3.95;;
78787;SDS011;68131;52.508;5.502;2023-05-15T09:54:29;5.38;;;3.13;;
78787;SDS011;68131;52.508;5.502;2023-05-15T09:57:06;6.43;;;4.13;;
78787;SDS011;68131;52.508;5.502;2023-05-15T09:59:43;5.40;;;3.42;;
78787;SDS011;68131;52.508;5.502;2023-05-15T10:02:22;6.63;;;3.78;;
78787;SDS011;68131;52.508;5.502;2023-05-15T10:04:58;8.32;;;3.80;;
78787;SDS011;68131;52.508;5.502;2023-05-15T10:07:28;4.82;;;3.08;;
78787;SDS011;68131;52.508;5.502;2023-05-15T10:10:00;4.82;;;3.50;;
78787;SDS011;68131;52.508;5.502;2023-05-15T10:12:39;6.93;;;3.80;;
78787;SDS011;68131;52.508;5.502;2023-05-15T10:15:09;5.68;;;3.17;;
78787;SDS011;68131;52.508;5.502;2023-05-15T10:17:39;7.00;;;3.78;;
78787;SDS011;68131;52.508;5.502;2023-05-15T10:20:13;7.15;;;4.32;;
78787;SDS011;68131;52.508;5.502;2023-05-15T10:22:45;7.22;;;4.25;;
78787;SDS011;68131;52.508;5.502;2023-05-15T10:25:20;6.43;;;3.80;;
78787;SDS011;68131;52.508;5.502;2023-05-15T10:27:55;5.57;;;3.20;;
78787;SDS011;68131;52.508;5.502;2023-05-15T10:30:27;6.53;;;4.30;;
78787;SDS011;68131;52.508;5.502;2023-05-15T10:32:58;6.75;;;4.30;;
78787;SDS011;68131;52.508;5.502;2023-05-15T10:35:32;7.25;;;4.30;;
78787;SDS011;68131;52.508;5.502;2023-05-15T10:38:04;7.97;;;3.90;;
78787;SDS011;68131;52.508;5.502;2023-05-15T10:40:36;9.45;;;4.63;;
78787;SDS011;68131;52.508;5.502;2023-05-15T10:43:09;11.13;;;5.10;;
78787;SDS011;68131;52.508;5.502;2023-05-15T10:45:41;8.15;;;4.80;;
78787;SDS011;68131;52.508;5.502;2023-05-15T10:48:11;8.10;;;4.90;;
78787;SDS011;68131;52.508;5.502;2023-05-15T10:50:45;10.13;;;5.57;;
78787;SDS011;68131;52.508;5.502;2023-05-15T10:53:23;10.35;;;5.18;;
78787;SDS011;68131;52.508;5.502;2023-05-15T10:55:52;10.60;;;4.30;;
78787;SDS011;68131;52.508;5.502;2023-05-15T10:58:21;9.68;;;4.63;;
78787;SDS011;68131;52.508;5.502;2023-05-15T11:00:51;11.30;;;5.07;;
78787;SDS011;68131;52.508;5.502;2023-05-15T11:03:35;13.07;;;5.55;;
78787;SDS011;68131;52.508;5.502;2023-05-15T11:06:11;9.95;;;4.93;;
78787;SDS011;68131;52.508;5.502;2023-05-15T11:08:41;11.80;;;5.88;;
78787;SDS011;68131;52.508;5.502;2023-05-15T11:14:12;13.43;;;5.60;;
78787;SDS011;68131;52.508;5.502;2023-05-15T11:19:33;10.70;;;5.28;;
78787;SDS011;68131;52.508;5.502;2023-05-15T11:24:48;9.30;;;5.22;;
78787;SDS011;68131;52.508;5.502;2023-05-15T11:27:19;10.80;;;5.88;;
78787;SDS011;68131;52.508;5.502;2023-05-15T11:30:03;9.93;;;6.60;;
78787;SDS011;68131;52.508;5.502;2023-05-15T11:35:29;12.25;;;6.70;;
78787;SDS011;68131;52.508;5.502;2023-05-15T11:38:03;11.45;;;5.90;;
78787;SDS011;68131;52.508;5.502;2023-05-15T11:40:45;11.55;;;6.30;;
78787;SDS011;68131;52.508;5.502;2023-05-15T11:43:18;9.43;;;5.53;;
78787;SDS011;68131;52.508;5.502;2023-05-15T11:45:50;11.07;;;6.10;;
78787;SDS011;68131;52.508;5.502;2023-05-15T11:48:21;13.07;;;6.90;;
78787;SDS011;68131;52.508;5.502;2023-05-15T11:50:51;10.27;;;6.20;;
78787;SDS011;68131;52.508;5.502;2023-05-15T11:53:23;13.35;;;6.22;;
78787;SDS011;68131;52.508;5.502;2023-05-15T11:55:52;11.77;;;6.75;;
78787;SDS011;68131;52.508;5.502;2023-05-15T11:58:22;9.57;;;5.68;;
78787;SDS011;68131;52.508;5.502;2023-05-15T12:00:52;5.45;;;4.35;;
78787;SDS011;68131;52.508;5.502;2023-05-15T12:03:25;6.97;;;4.15;;
78787;SDS011;68131;52.508;5.502;2023-05-15T12:05:55;8.98;;;4.80;;
78787;SDS011;68131;52.508;5.502;2023-05-15T12:08:29;7.43;;;4.25;;
78787;SDS011;68131;52.508;5.502;2023-05-15T12:10:59;8.48;;;4.18;;
78787;SDS011;68131;52.508;5.502;2023-05-15T12:13:31;5.88;;;4.07;;
78787;SDS011;68131;52.508;5.502;2023-05-15T12:16:03;6.88;;;4.38;;
78787;SDS011;68131;52.508;5.502;2023-05-15T12:18:33;6.72;;;3.78;;
78787;SDS011;68131;52.508;5.502;2023-05-15T12:21:02;5.45;;;3.85;;
78787;SDS011;68131;52.508;5.502;2023-05-15T12:23:34;5.85;;;3.42;;
78787;SDS011;68131;52.508;5.502;2023-05-15T12:26:03;6.70;;;3.90;;
78787;SDS011;68131;52.508;5.502;2023-05-15T12:28:36;4.90;;;3.17;;
78787;SDS011;68131;52.508;5.502;2023-05-15T12:31:07;6.13;;;4.43;;
78787;SDS011;68131;52.508;5.502;2023-05-15T12:33:39;6.43;;;3.75;;
78787;SDS011;68131;52.508;5.502;2023-05-15T12:36:08;5.57;;;3.58;;
78787;SDS011;68131;52.508;5.502;2023-05-15T12:38:40;7.07;;;4.28;;
78787;SDS011;68131;52.508;5.502;2023-05-15T12:41:09;5.28;;;3.63;;
78787;SDS011;68131;52.508;5.502;2023-05-15T12:43:39;5.68;;;3.70;;
78787;SDS011;68131;52.508;5.502;2023-05-15T12:46:08;7.18;;;4.28;;
78787;SDS011;68131;52.508;5.502;2023-05-15T12:48:40;10.00;;;4.47;;
78787;SDS011;68131;52.508;5.502;2023-05-15T12:51:10;8.73;;;5.05;;
78787;SDS011;68131;52.508;5.502;2023-05-15T12:53:46;6.93;;;4.18;;
78787;SDS011;68131;52.508;5.502;2023-05-15T12:56:15;7.20;;;4.32;;
78787;SDS011;68131;52.508;5.502;2023-05-15T12:58:46;7.43;;;4.22;;
78787;SDS011;68131;52.508;5.502;2023-05-15T13:01:15;9.63;;;4.85;;
78787;SDS011;68131;52.508;5.502;2023-05-15T13:03:45;8.35;;;5.38;;
78787;SDS011;68131;52.508;5.502;2023-05-15T13:06:15;6.38;;;3.78;;
78787;SDS011;68131;52.508;5.502;2023-05-15T13:08:47;7.38;;;4.15;;
78787;SDS011;68131;52.508;5.502;2023-05-15T13:11:17;6.60;;;4.25;;
78787;SDS011;68131;52.508;5.502;2023-05-15T13:13:48;7.78;;;4.47;;
78787;SDS011;68131;52.508;5.502;2023-05-15T13:16:18;7.75;;;4.32;;
78787;SDS011;68131;52.508;5.502;2023-05-15T13:18:54;7.88;;;5.10;;
78787;SDS011;68131;52.508;5.502;2023-05-15T13:21:24;7.93;;;4.60;;
78787;SDS011;68131;52.508;5.502;2023-05-15T13:23:57;10.07;;;4.97;;
78787;SDS011;68131;52.508;5.502;2023-05-15T13:26:26;7.93;;;4.60;;
78787;SDS011;68131;52.508;5.502;2023-05-15T13:28:55;9.68;;;4.97;;
78787;SDS011;68131;52.508;5.502;2023-05-15T13:31:24;7.40;;;4.93;;
78787;SDS011;68131;52.508;5.502;2023-05-15T13:33:53;6.88;;;4.45;;
78787;SDS011;68131;52.508;5.502;2023-05-15T13:36:22;7.90;;;4.40;;
78787;SDS011;68131;52.508;5.502;2023-05-15T13:38:51;4.55;;;3.58;;
78787;SDS011;68131;52.508;5.502;2023-05-15T13:41:23;5.90;;;3.50;;
78787;SDS011;68131;52.508;5.502;2023-05-15T13:43:52;5.10;;;2.92;;
78787;SDS011;68131;52.508;5.502;2023-05-15T13:46:21;5.05;;;3.10;;
78787;SDS011;68131;52.508;5.502;2023-05-15T13:48:50;5.57;;;3.72;;
78787;SDS011;68131;52.508;5.502;2023-05-15T13:51:19;4.70;;;3.35;;
78787;SDS011;68131;52.508;5.502;2023-05-15T13:53:49;4.93;;;3.35;;
78787;SDS011;68131;52.508;5.502;2023-05-15T13:56:18;6.05;;;3.38;;
78787;SDS011;68131;52.508;5.502;2023-05-15T13:58:49;4.75;;;3.10;;
78787;SDS011;68131;52.508;5.502;2023-05-15T14:01:18;5.45;;;3.67;;
78787;SDS011;68131;52.508;5.502;2023-05-15T14:03:47;5.35;;;3.17;;
78787;SDS011;68131;52.508;5.502;2023-05-15T14:06:17;7.07;;;3.55;;
78787;SDS011;68131;52.508;5.502;2023-05-15T14:08:46;5.28;;;3.40;;
78787;SDS011;68131;52.508;5.502;2023-05-15T14:11:15;4.93;;;3.30;;
78787;SDS011;68131;52.508;5.502;2023-05-15T14:13:50;5.20;;;3.45;;
78787;SDS011;68131;52.508;5.502;2023-05-15T14:16:24;5.38;;;3.47;;
78787;SDS011;68131;52.508;5.502;2023-05-15T14:18:53;9.38;;;4.55;;
78787;SDS011;68131;52.508;5.502;2023-05-15T14:21:22;6.38;;;3.83;;
78787;SDS011;68131;52.508;5.502;2023-05-15T14:23:51;4.18;;;2.83;;
78787;SDS011;68131;52.508;5.502;2023-05-15T14:26:21;6.75;;;3.60;;
78787;SDS011;68131;52.508;5.502;2023-05-15T14:28:53;7.47;;;3.85;;
78787;SDS011;68131;52.508;5.502;2023-05-15T14:31:22;6.10;;;3.47;;
78787;SDS011;68131;52.508;5.502;2023-05-15T14:33:52;6.20;;;3.97;;
78787;SDS011;68131;52.508;5.502;2023-05-15T14:36:22;6.63;;;3.78;;
78787;SDS011;68131;52.508;5.502;2023-05-15T14:38:51;9.15;;;3.10;;
78787;SDS011;68131;52.508;5.502;2023-05-15T14:41:20;7.15;;;4.63;;
78787;SDS011;68131;52.508;5.502;2023-05-15T14:43:49;5.22;;;3.30;;
78787;SDS011;68131;52.508;5.502;2023-05-15T14:46:21;6.03;;;3.40;;
78787;SDS011;68131;52.508;5.502;2023-05-15T14:48:50;4.15;;;2.60;;
78787;SDS011;68131;52.508;5.502;2023-05-15T14:51:19;6.40;;;3.00;;
78787;SDS011;68131;52.508;5.502;2023-05-15T14:53:48;6.60;;;3.13;;
78787;SDS011;68131;52.508;5.502;2023-05-15T14:56:17;4.43;;;2.70;;
78787;SDS011;68131;52.508;5.502;2023-05-15T14:58:47;5.25;;;2.78;;
78787;SDS011;68131;52.508;5.502;2023-05-15T15:01:20;4.40;;;2.10;;
78787;SDS011;68131;52.508;5.502;2023-05-15T15:03:49;5.85;;;2.33;;
78787;SDS011;68131;52.508;5.502;2023-05-15T15:06:18;3.63;;;2.42;;
78787;SDS011;68131;52.508;5.502;2023-05-15T15:08:47;3.97;;;2.00;;
78787;SDS011;68131;52.508;5.502;2023-05-15T15:11:17;3.58;;;2.00;;
78787;SDS011;68131;52.508;5.502;2023-05-15T15:13:46;3.53;;;2.42;;
78787;SDS011;68131;52.508;5.502;2023-05-15T15:16:15;3.58;;;2.03;;
78787;SDS011;68131;52.508;5.502;2023-05-15T15:18:47;2.90;;;1.77;;
78787;SDS011;68131;52.508;5.502;2023-05-15T15:21:16;2.88;;;1.30;;
78787;SDS011;68131;52.508;5.502;2023-05-15T15:23:47;1.90;;;1.30;;